Time;durP1;ratioP1;P1;durP2;ratioP2;P2;SDS_P1;SDS_P2;PMS_P1;PMS_P2;Temp;Humidity;BMP_temperature;BMP_pressure;BME280_temperature;BME280_humidity;BME280_pressure;Samples;Min_cycle;Max_cycle;Signal;HPM_P1;HPM_P2
2023/01/31 00:00:51;;;;;;;28.30;16.20;;;;;;;-3.47;100.00;96726.15;110225;1241;69883;-71
2023/01/31 00:03:24;;;;;;;26.60;15.90;;;;;;;-3.44;100.00;96726.74;110136;1241;59673;-71
2023/01/31 00:05:53;;;;;;;34.70;18.60;;;;;;;-3.41;100.00;96727.52;110182;1242;59643;-71
2023/01/31 00:08:24;;;;;;;36.90;20.00;;;;;;;-3.40;100.00;96732.24;110247;1242;70490;-71
2023/01/31 00:10:53;;;;;;;32.60;19.10;;;;;;;-3.39;100.00;96736.81;110206;1242;69248;-70
2023/01/31 00:13:22;;;;;;;34.60;19.70;;;;;;;-3.42;100.00;96738.78;110186;1242;69740;-71
2023/01/31 00:15:55;;;;;;;31.60;17.00;;;;;;;-3.42;100.00;96741.16;110209;1241;59698;-71
2023/01/31 00:18:25;;;;;;;29.10;16.00;;;;;;;-3.39;100.00;96739.55;110229;1240;59818;-71
2023/01/31 00:20:55;;;;;;;32.00;15.30;;;;;;;-3.37;100.00;96739.15;110222;1242;70685;-71
2023/01/31 00:23:25;;;;;;;39.60;19.60;;;;;;;-3.34;100.00;96731.74;110141;1240;68509;-71
2023/01/31 00:26:05;;;;;;;62.00;29.40;;;;;;;-3.31;100.00;96732.68;110254;1242;69845;-71
2023/01/31 00:28:35;;;;;;;44.00;19.80;;;;;;;-3.30;100.00;96727.17;110245;1241;59745;-72
2023/01/31 00:31:06;;;;;;;35.90;18.00;;;;;;;-3.28;100.00;96730.89;110284;1242;59683;-72
2023/01/31 00:33:37;;;;;;;32.80;16.90;;;;;;;-3.28;100.00;96724.92;110217;1241;71531;-72
2023/01/31 00:36:11;;;;;;;34.20;18.30;;;;;;;-3.26;100.00;96731.17;110214;1240;69212;-72
2023/01/31 00:38:42;;;;;;;32.50;17.00;;;;;;;-3.28;99.99;96726.12;110286;1242;69315;-72
2023/01/31 00:41:12;;;;;;;33.40;16.90;;;;;;;-3.27;99.90;96723.89;110185;1243;59698;-72
2023/01/31 00:43:42;;;;;;;26.80;14.30;;;;;;;-3.26;99.99;96724.34;110320;1241;59676;-72
2023/01/31 00:46:11;;;;;;;32.40;16.90;;;;;;;-3.24;100.00;96728.88;110299;1240;71405;-71
2023/01/31 00:48:42;;;;;;;30.20;15.90;;;;;;;-3.22;100.00;96732.27;110205;1245;69061;-71
2023/01/31 00:51:11;;;;;;;29.20;15.40;;;;;;;-3.20;100.00;96734.73;110346;1242;69118;-72
2023/01/31 00:53:40;;;;;;;26.00;14.20;;;;;;;-3.19;100.00;96734.38;110303;1241;59691;-71
2023/01/31 00:56:13;;;;;;;30.40;17.10;;;;;;;-3.18;100.00;96731.80;110177;1245;59681;-71
2023/01/31 00:58:43;;;;;;;32.20;17.20;;;;;;;-3.19;100.00;96729.27;110219;1241;71219;-72
2023/01/31 01:01:21;;;;;;;27.90;16.30;;;;;;;-3.20;100.00;96731.32;110040;1241;68425;-72
2023/01/31 01:03:54;;;;;;;29.90;15.70;;;;;;;-3.20;99.97;96729.63;110094;1241;68775;-73
2023/01/31 01:06:25;;;;;;;31.90;17.30;;;;;;;-3.19;99.92;96728.76;110265;1241;59701;-71
2023/01/31 01:08:58;;;;;;;30.90;16.90;;;;;;;-3.20;99.61;96726.20;110188;1244;59604;-71
2023/01/31 01:11:31;;;;;;;31.20;16.40;;;;;;;-3.20;99.38;96725.54;110186;1244;71423;-71
2023/01/31 01:14:03;;;;;;;28.80;15.50;;;;;;;-3.20;99.65;96727.23;110228;1242;69184;-71
2023/01/31 01:16:38;;;;;;;31.90;17.60;;;;;;;-3.19;99.17;96724.15;110227;1243;69889;-71
2023/01/31 01:19:12;;;;;;;35.10;18.90;;;;;;;-3.22;99.08;96722.70;110229;1242;60055;-72
2023/01/31 01:21:43;;;;;;;28.90;16.00;;;;;;;-3.24;99.66;96718.49;110311;1242;59756;-72
2023/01/31 01:24:16;;;;;;;29.10;15.30;;;;;;;-3.23;100.00;96715.23;110178;1240;71441;-71
2023/01/31 01:26:46;;;;;;;32.40;17.30;;;;;;;-3.21;100.00;96712.11;110152;1240;68933;-72
2023/01/31 01:29:17;;;;;;;29.70;16.40;;;;;;;-3.21;100.00;96709.70;110270;1241;69282;-72
2023/01/31 01:31:47;;;;;;;32.60;16.90;;;;;;;-3.22;100.00;96709.59;110259;1240;59743;-71
2023/01/31 01:34:17;;;;;;;25.30;14.80;;;;;;;-3.21;100.00;96707.83;110289;1241;59718;-71
2023/01/31 01:36:48;;;;;;;29.20;15.20;;;;;;;-3.20;100.00;96712.92;110258;1242;71486;-71
2023/01/31 01:39:19;;;;;;;24.60;14.30;;;;;;;-3.18;100.00;96713.55;110272;1240;67786;-71
2023/01/31 01:41:51;;;;;;;28.00;15.10;;;;;;;-3.16;100.00;96716.03;110168;1241;68670;-71
2023/01/31 01:45:01;;;;;;;27.10;14.20;;;;;;;-3.13;100.00;96716.45;110228;1242;59722;-71
2023/01/31 01:47:34;;;;;;;;;;;;;;;-3.12;100.00;96717.81;109476;1249;59832;-71
2023/01/31 01:50:35;;;;;;;25.00;14.50;;;;;;;-3.13;100.00;96720.71;109408;1250;71272;-71
2023/01/31 01:53:34;;;;;;;21.60;11.30;;;;;;;-3.12;100.00;96722.74;109926;1243;67529;-71
2023/01/31 01:56:15;;;;;;;25.10;13.90;;;;;;;-3.10;100.00;96724.89;109953;1245;67541;-71
2023/01/31 01:58:52;;;;;;;27.20;14.80;;;;;;;-3.08;100.00;96716.16;110113;1245;59749;-71
2023/01/31 02:01:27;;;;;;;21.60;12.10;;;;;;;-3.06;100.00;96710.30;110109;1244;59687;-71
2023/01/31 02:04:04;;;;;;;22.40;13.50;;;;;;;-3.02;100.00;96710.02;110056;1242;70487;-71
2023/01/31 02:06:34;;;;;;;23.80;13.00;;;;;;;-3.00;100.00;96709.45;110089;1244;68600;-71
2023/01/31 02:09:10;;;;;;;26.80;14.60;;;;;;;-3.00;100.00;96712.69;110091;1244;67667;-71
2023/01/31 02:11:41;;;;;;;30.50;16.00;;;;;;;-3.00;100.00;96713.38;110105;1245;59796;-71
2023/01/31 02:14:13;;;;;;;26.20;14.40;;;;;;;-3.07;100.00;96712.38;110071;1242;59644;-72
2023/01/31 02:16:43;;;;;;;29.50;15.40;;;;;;;-3.09;100.00;96710.55;110096;1244;71412;-71
2023/01/31 02:19:44;;;;;;;24.70;13.50;;;;;;;-3.11;100.00;96716.73;109884;1245;69247;-71
2023/01/31 02:22:29;;;;;;;24.50;14.50;;;;;;;-3.10;100.00;96716.71;109750;1245;69154;-71
2023/01/31 02:25:24;;;;;;;23.50;12.40;;;;;;;-3.13;100.00;96715.09;110051;1245;59728;-71
2023/01/31 02:28:27;;;;;;;26.40;14.80;;;;;;;-3.12;100.00;96716.59;110054;1244;59683;-71
2023/01/31 02:31:29;;;;;;;24.30;13.70;;;;;;;-3.13;100.00;96717.15;110062;1244;71390;-71
2023/01/31 02:34:14;;;;;;;22.90;13.10;;;;;;;-3.14;100.00;96716.85;109762;1245;69171;-71
2023/01/31 02:37:14;;;;;;;26.80;13.10;;;;;;;-3.14;100.00;96710.55;110104;1245;68551;-72
2023/01/31 02:39:52;;;;;;;22.50;13.10;;;;;;;-3.15;100.00;96710.88;110122;1244;59712;-72
2023/01/31 02:42:30;;;;;;;34.40;16.40;;;;;;;-3.16;100.00;96713.98;110028;1243;59680;-72
2023/01/31 02:45:14;;;;;;;27.00;15.10;;;;;;;-3.17;100.00;96714.88;110081;1245;72198;-71
2023/01/31 02:48:09;;;;;;;25.90;15.00;;;;;;;-3.19;99.96;96718.36;110138;1245;68504;-71
2023/01/31 02:51:12;;;;;;;23.80;13.80;;;;;;;-3.20;100.00;96720.25;110148;1241;69889;-71
2023/01/31 02:54:14;;;;;;;20.60;11.30;;;;;;;-3.20;100.00;96727.90;110095;1241;59780;-70
2023/01/31 02:56:49;;;;;;;20.50;12.00;;;;;;;-3.18;100.00;96729.41;110129;1243;59737;-71
2023/01/31 02:59:25;;;;;;;27.20;15.70;;;;;;;-3.18;99.30;96731.11;110123;1241;70628;-70
2023/01/31 03:02:01;;;;;;;24.10;15.00;;;;;;;-3.20;99.02;96735.93;110103;1244;69859;-70
2023/01/31 03:04:32;;;;;;;31.90;17.50;;;;;;;-3.22;100.00;96741.77;110116;1243;68356;-71
2023/01/31 03:07:12;;;;;;;25.50;14.70;;;;;;;-3.22;100.00;96749.10;110169;1245;59741;-70
2023/01/31 03:09:53;;;;;;;23.20;12.80;;;;;;;-3.20;100.00;96749.58;110124;1245;59735;-71
2023/01/31 03:12:29;;;;;;;30.00;15.60;;;;;;;-3.20;100.00;96749.90;110113;1245;71375;-71
2023/01/31 03:17:30;;;;;;;27.00;14.20;;;;;;;-3.19;100.00;96743.23;110116;1244;69214;-71
2023/01/31 03:18:29;;;;;;;30.10;15.70;;;;;;;-3.20;100.00;96743.23;110122;1241;69363;-71
2023/01/31 03:21:14;;;;;;;25.30;13.60;;;;;;;-3.22;100.00;96745.70;110120;1243;59708;-71
2023/01/31 03:23:50;;;;;;;28.40;14.30;;;;;;;-3.20;100.00;96749.58;110096;1245;59641;-71
2023/01/31 03:26:22;;;;;;;30.60;16.30;;;;;;;-3.19;100.00;96752.60;110092;1251;71336;-72
2023/01/31 03:28:56;;;;;;;26.80;13.20;;;;;;;-3.17;100.00;96751.02;110014;1244;69681;-71
2023/01/31 03:31:35;;;;;;;23.60;14.20;;;;;;;-3.17;100.00;96752.54;110092;1244;69271;-72
2023/01/31 03:34:11;;;;;;;30.80;15.70;;;;;;;-3.16;100.00;96753.35;110280;1242;59757;-71
2023/01/31 03:36:46;;;;;;;28.60;15.90;;;;;;;-3.16;100.00;96751.33;110192;1241;59688;-71
2023/01/31 03:39:50;;;;;;;33.30;18.40;;;;;;;-3.16;100.00;96759.84;110168;1245;71237;-71
2023/01/31 03:42:27;;;;;;;;;;;;;;;-3.15;100.00;96763.23;110125;1245;68290;-71
2023/01/31 03:45:42;;;;;;;26.40;13.60;;;;;;;-3.14;100.00;96763.02;110064;1241;69260;-71
2023/01/31 03:48:17;;;;;;;26.80;13.90;;;;;;;-3.14;100.00;96761.33;109738;1248;59764;-71
2023/01/31 03:51:01;;;;;;;25.30;13.80;;;;;;;-3.16;99.97;96758.14;109869;1242;59754;-71
2023/01/31 03:53:37;;;;;;;23.00;12.80;;;;;;;-3.18;99.85;96756.50;110131;1241;71359;-71
2023/01/31 03:56:16;;;;;;;27.40;14.10;;;;;;;-3.20;99.42;96759.11;110150;1244;68534;-71
2023/01/31 03:58:53;;;;;;;30.20;15.40;;;;;;;-3.22;99.34;96755.60;109902;1241;68493;-71
2023/01/31 04:01:27;;;;;;;23.40;13.80;;;;;;;-3.24;99.34;96751.56;109793;1241;59710;-71
2023/01/31 04:04:15;;;;;;;25.40;13.80;;;;;;;-3.25;99.80;96746.30;110173;1241;59745;-71
2023/01/31 04:06:46;;;;;;;30.30;15.50;;;;;;;-3.25;100.00;96740.16;110081;1241;71483;-71
2023/01/31 04:09:16;;;;;;;20.40;11.80;;;;;;;-3.25;99.99;96744.27;110073;1244;69669;-71
2023/01/31 04:11:49;;;;;;;28.90;15.70;;;;;;;-3.25;99.98;96740.00;110148;1241;68533;-71
2023/01/31 04:14:20;;;;;;;51.30;31.20;;;;;;;-3.24;100.00;96738.09;110156;1241;60064;-71
2023/01/31 04:16:50;;;;;;;55.90;34.10;;;;;;;-3.24;99.59;96732.64;110159;1242;59646;-71
2023/01/31 04:19:20;;;;;;;40.30;21.30;;;;;;;-3.26;99.13;96733.36;110159;1241;71966;-71
2023/01/31 04:21:49;;;;;;;33.60;17.70;;;;;;;-3.26;98.83;96729.98;110180;1243;69242;-71
2023/01/31 04:24:19;;;;;;;;;;;;;;;-3.30;99.56;96729.39;110166;1241;69292;-71
2023/01/31 04:26:49;;;;;;;29.50;16.80;;;;;;;-3.30;100.00;96743.05;110121;1241;59765;-71
2023/01/31 04:29:20;;;;;;;24.90;14.80;;;;;;;-3.30;100.00;96755.63;110137;1244;59671;-71
2023/01/31 04:31:49;;;;;;;;;;;;;;;-3.27;100.00;96773.48;110179;1245;70793;-71
2023/01/31 04:34:19;;;;;;;26.30;13.90;;;;;;;-3.25;100.00;96773.08;110128;1245;69126;-71
2023/01/31 04:36:49;;;;;;;35.30;16.90;;;;;;;-3.23;100.00;96777.94;110130;1244;68361;-71
2023/01/31 04:39:18;;;;;;;36.30;17.70;;;;;;;-3.20;100.00;96774.62;110113;1243;59750;-72
2023/01/31 04:41:47;;;;;;;34.70;17.70;;;;;;;-3.19;100.00;96776.98;110176;1243;59673;-71
2023/01/31 04:44:16;;;;;;;31.00;16.60;;;;;;;-3.19;100.00;96779.88;110159;1241;71974;-71
2023/01/31 04:46:45;;;;;;;38.40;20.10;;;;;;;-3.17;100.00;96779.65;110151;1241;69836;-71
2023/01/31 04:49:15;;;;;;;30.80;17.60;;;;;;;-3.16;100.00;96779.61;110189;1242;68345;-71
2023/01/31 04:51:47;;;;;;;32.50;18.10;;;;;;;-3.14;100.00;96783.50;110190;1242;59734;-71
2023/01/31 04:54:16;;;;;;;30.80;15.20;;;;;;;-3.12;100.00;96785.98;110227;1241;59682;-71
2023/01/31 04:56:46;;;;;;;30.00;17.40;;;;;;;-3.11;100.00;96785.77;110206;1241;71402;-71
2023/01/31 04:59:15;;;;;;;30.30;17.30;;;;;;;-3.10;100.00;96788.98;110219;1242;69543;-71
2023/01/31 05:01:44;;;;;;;28.00;16.60;;;;;;;-3.09;100.00;96796.31;110207;1242;69139;-71
2023/01/31 05:04:14;;;;;;;35.00;17.50;;;;;;;-3.08;100.00;96800.70;110218;1242;59728;-71
2023/01/31 05:06:43;;;;;;;31.20;17.60;;;;;;;-3.07;100.00;96799.80;110176;1241;59675;-71
2023/01/31 05:09:13;;;;;;;32.10;18.20;;;;;;;-3.04;100.00;96797.52;110227;1241;71265;-71
2023/01/31 05:11:43;;;;;;;32.60;16.60;;;;;;;-3.03;100.00;96792.22;110215;1242;68344;-72
2023/01/31 05:14:13;;;;;;;33.00;16.50;;;;;;;-3.01;100.00;96786.88;110157;1242;69250;-71
2023/01/31 05:16:46;;;;;;;26.80;15.10;;;;;;;-3.00;100.00;96797.60;110217;1243;59663;-71
2023/01/31 05:19:15;;;;;;;26.60;15.50;;;;;;;-2.99;100.00;96796.21;110222;1242;59707;-71
2023/01/31 05:21:53;;;;;;;39.80;20.70;;;;;;;-2.99;100.00;96798.73;110229;1241;70618;-71
2023/01/31 05:24:25;;;;;;;28.40;16.40;;;;;;;-2.97;100.00;96799.38;110168;1242;69836;-72
2023/01/31 05:26:57;;;;;;;34.50;18.80;;;;;;;-2.97;100.00;96797.33;110218;1242;68329;-71
2023/01/31 05:29:29;;;;;;;40.50;23.50;;;;;;;-2.99;100.00;96789.39;110236;1242;59701;-71
2023/01/31 05:32:00;;;;;;;34.20;20.60;;;;;;;-3.01;99.99;96787.89;110252;1242;59754;-71
2023/01/31 05:34:31;;;;;;;30.70;18.70;;;;;;;-3.05;99.76;96783.58;110213;1241;70617;-71
2023/01/31 05:37:01;;;;;;;30.20;18.60;;;;;;;-3.09;99.78;96792.89;110220;1241;68766;-71
2023/01/31 05:39:31;;;;;;;35.00;19.60;;;;;;;-3.13;100.00;96800.48;110177;1244;69975;-71
2023/01/31 05:42:00;;;;;;;33.40;18.60;;;;;;;-3.15;100.00;96801.40;110190;1243;59647;-72
2023/01/31 05:44:31;;;;;;;31.90;17.50;;;;;;;-3.17;100.00;96800.09;110222;1242;59682;-71
2023/01/31 05:47:00;;;;;;;;;;;;;;;-3.17;100.00;96804.38;110203;1242;70685;-71
2023/01/31 05:49:32;;;;;;;28.80;16.30;;;;;;;-3.16;100.00;96802.95;110191;1240;69652;-71
2023/01/31 05:52:01;;;;;;;26.20;14.80;;;;;;;-3.15;100.00;96803.11;110172;1242;69853;-71
2023/01/31 05:54:30;;;;;;;32.80;18.70;;;;;;;-3.15;100.00;96813.52;110207;1241;59751;-71
2023/01/31 05:57:00;;;;;;;29.10;15.10;;;;;;;-3.15;100.00;96817.09;110201;1242;59604;-72
2023/01/31 05:59:32;;;;;;;29.90;16.00;;;;;;;-3.13;100.00;96813.30;110204;1241;71155;-71
2023/01/31 06:02:01;;;;;;;30.70;16.20;;;;;;;-3.12;100.00;96816.30;110166;1240;68602;-72
2023/01/31 06:04:30;;;;;;;29.80;16.00;;;;;;;-3.11;100.00;96823.96;110118;1241;70190;-71
2023/01/31 06:06:59;;;;;;;29.00;15.50;;;;;;;-3.08;100.00;96828.16;110198;1243;59689;-71
2023/01/31 06:09:29;;;;;;;70.70;40.80;;;;;;;-3.07;100.00;96826.41;110186;1242;59675;-72
2023/01/31 06:11:58;;;;;;;43.30;23.70;;;;;;;-3.06;100.00;96839.17;110193;1242;71399;-71
2023/01/31 06:14:28;;;;;;;35.90;20.20;;;;;;;-3.07;100.00;96848.39;110204;1242;69237;-71
2023/01/31 06:16:57;;;;;;;32.00;16.60;;;;;;;-3.04;100.00;96851.58;110128;1242;69270;-71
2023/01/31 06:19:26;;;;;;;29.10;17.90;;;;;;;-3.02;100.00;96853.40;110229;1242;59637;-72
2023/01/31 06:21:55;;;;;;;35.00;18.60;;;;;;;-3.01;100.00;96850.45;110178;1242;59721;-72
2023/01/31 06:24:25;;;;;;;27.00;16.00;;;;;;;-2.98;100.00;96855.17;110144;1241;70861;-72
2023/01/31 06:26:54;;;;;;;23.90;13.30;;;;;;;-2.94;100.00;96861.02;110237;1242;69769;-72
2023/01/31 06:29:22;;;;;;;27.80;14.30;;;;;;;-2.89;100.00;96860.17;110308;1241;69230;-71
2023/01/31 06:31:52;;;;;;;24.10;13.50;;;;;;;-2.84;100.00;96860.05;110264;1242;59904;-71
2023/01/31 06:34:21;;;;;;;27.00;16.10;;;;;;;-2.81;100.00;96869.00;110231;1242;59654;-71
2023/01/31 06:36:51;;;;;;;30.20;17.00;;;;;;;-2.81;100.00;96870.19;110226;1242;72043;-71
2023/01/31 06:39:21;;;;;;;27.00;15.40;;;;;;;-2.78;100.00;96876.06;110186;1240;69270;-71
2023/01/31 06:41:50;;;;;;;26.70;15.10;;;;;;;-2.74;100.00;96879.89;110169;1242;69466;-71
2023/01/31 06:44:19;;;;;;;31.10;17.20;;;;;;;-2.72;100.00;96879.83;110116;1242;59735;-71
2023/01/31 06:46:49;;;;;;;25.90;16.20;;;;;;;-2.73;100.00;96881.40;110186;1241;59699;-71
2023/01/31 06:49:18;;;;;;;27.20;15.50;;;;;;;-2.75;100.00;96887.92;110213;1242;71383;-71
2023/01/31 06:51:47;;;;;;;34.10;19.80;;;;;;;-2.75;100.00;96888.27;110123;1245;69843;-71
2023/01/31 06:54:16;;;;;;;29.00;16.20;;;;;;;-2.76;99.93;96893.77;110193;1242;68554;-71
2023/01/31 06:56:47;;;;;;;57.00;30.40;;;;;;;-2.82;99.93;96891.35;110175;1241;59669;-71
2023/01/31 06:59:16;;;;;;;32.80;17.40;;;;;;;-2.91;100.00;96895.52;110205;1244;60049;-71
2023/01/31 07:01:45;;;;;;;27.20;15.50;;;;;;;-2.91;100.00;96897.59;110161;1241;72282;-71
2023/01/31 07:04:14;;;;;;;27.20;16.40;;;;;;;-2.92;100.00;96902.02;110147;1240;70212;-71
2023/01/31 07:06:44;;;;;;;31.80;16.80;;;;;;;-2.94;100.00;96907.90;110144;1243;69835;-71
2023/01/31 07:09:13;;;;;;;33.00;17.90;;;;;;;-2.94;100.00;96907.89;110163;1242;59737;-71
2023/01/31 07:11:43;;;;;;;31.20;18.40;;;;;;;-2.92;100.00;96910.21;110219;1242;59627;-71
2023/01/31 07:14:12;;;;;;;31.60;18.30;;;;;;;-2.90;100.00;96910.84;110167;1241;70984;-71
2023/01/31 07:16:41;;;;;;;34.60;18.80;;;;;;;-2.91;100.00;96913.97;110157;1240;67693;-71
2023/01/31 07:19:10;;;;;;;37.30;20.40;;;;;;;-2.89;100.00;96912.86;110189;1249;69832;-73
2023/01/31 07:21:41;;;;;;;37.20;20.20;;;;;;;-2.90;100.00;96913.92;110165;1241;59701;-71
2023/01/31 07:24:09;;;;;;;31.00;16.40;;;;;;;-2.89;100.00;96917.83;110172;1243;60092;-71
2023/01/31 07:26:38;;;;;;;35.00;19.30;;;;;;;-2.88;100.00;96916.60;110163;1240;70383;-71
2023/01/31 07:29:08;;;;;;;33.10;19.50;;;;;;;-2.86;100.00;96920.46;110149;1242;68612;-71
2023/01/31 07:44:37;;;;;;;34.50;22.30;;;;;;;-2.55;100.00;96941.78;107192;1270;609872;-72
2023/01/31 07:47:07;;;;;;;30.80;18.80;;;;;;;-2.46;100.00;96943.77;109073;1258;212612;-71
2023/01/31 07:49:36;;;;;;;30.20;19.10;;;;;;;-2.46;100.00;96943.23;109308;1254;58030;-71
2023/01/31 07:52:05;;;;;;;31.50;18.40;;;;;;;-2.48;100.00;96951.99;109315;1254;69053;-71
2023/01/31 07:54:36;;;;;;;27.30;15.80;;;;;;;-2.58;100.00;96951.59;109307;1254;69232;-71
2023/01/31 07:57:05;;;;;;;26.90;16.40;;;;;;;-2.54;100.00;96952.67;109314;1253;69295;-71
2023/01/31 07:59:35;;;;;;;;;;;;;;;-2.51;100.00;96954.30;109296;1255;57653;-70
2023/01/31 08:04:56;;;;;;;28.00;15.00;;;;;;;-2.57;100.00;96951.91;109279;1254;69791;-71
2023/01/31 08:07:26;;;;;;;31.30;16.10;;;;;;;-2.52;100.00;96952.12;109313;1255;69129;-71
2023/01/31 08:09:55;;;;;;;27.70;16.10;;;;;;;-2.52;100.00;96953.81;109344;1253;68555;-71
2023/01/31 08:12:24;;;;;;;31.60;16.20;;;;;;;-2.45;100.00;96956.50;110165;1243;58207;-71
2023/01/31 08:14:53;;;;;;;26.50;16.20;;;;;;;-2.43;99.93;96958.34;110166;1245;58054;-70
2023/01/31 08:17:22;;;;;;;26.90;15.10;;;;;;;-2.44;99.97;96958.36;110192;1243;68804;-71
2023/01/31 08:19:51;;;;;;;26.10;15.30;;;;;;;-2.46;99.93;96965.59;110132;1245;69388;-70
2023/01/31 08:22:20;;;;;;;27.80;15.10;;;;;;;-2.46;99.99;96966.11;110160;1243;68372;-72
2023/01/31 08:24:49;;;;;;;28.50;16.50;;;;;;;-2.47;99.94;96964.09;110178;1241;58118;-72
2023/01/31 08:27:18;;;;;;;29.10;15.10;;;;;;;-2.46;99.91;96969.15;110175;1244;58038;-71
2023/01/31 08:29:47;;;;;;;30.10;17.00;;;;;;;-2.43;99.96;96971.65;110216;1241;70362;-70
2023/01/31 08:32:16;;;;;;;27.60;16.60;;;;;;;-2.42;99.89;96970.77;110164;1241;69313;-70
2023/01/31 08:34:45;;;;;;;26.80;15.80;;;;;;;-2.41;99.94;96975.18;110175;1241;69180;-70
2023/01/31 08:37:14;;;;;;;31.90;18.50;;;;;;;-2.37;99.88;96976.08;110156;1244;58515;-70
2023/01/31 08:39:47;;;;;;;30.10;17.10;;;;;;;-2.33;100.00;96980.91;110137;1244;58095;-71
2023/01/31 08:42:16;;;;;;;27.70;16.00;;;;;;;-2.29;100.00;96981.15;110166;1241;69956;-70
2023/01/31 08:44:45;;;;;;;27.50;16.00;;;;;;;-2.28;100.00;96981.81;110129;1245;69131;-70
2023/01/31 08:47:14;;;;;;;29.90;17.30;;;;;;;-2.24;100.00;96986.48;110102;1243;69861;-71
2023/01/31 08:49:43;;;;;;;28.50;16.40;;;;;;;-2.22;100.00;96989.66;110091;1241;58145;-71
2023/01/31 08:52:11;;;;;;;25.90;16.90;;;;;;;-2.23;100.00;96985.59;110149;1244;58072;-71
2023/01/31 08:54:40;;;;;;;30.10;16.70;;;;;;;-2.17;100.00;96984.57;110084;1242;69791;-71
2023/01/31 08:57:09;;;;;;;32.50;18.30;;;;;;;-2.09;100.00;96985.35;110154;1244;68788;-71
2023/01/31 08:59:38;;;;;;;29.70;16.20;;;;;;;-2.02;100.00;96992.68;110092;1245;69645;-70
2023/01/31 09:02:10;;;;;;;28.10;16.50;;;;;;;-2.02;100.00;96998.79;110136;1243;58150;-71
2023/01/31 09:04:39;;;;;;;40.80;20.90;;;;;;;-1.99;100.00;97007.42;110158;1245;58153;-71
2023/01/31 09:07:07;;;;;;;31.90;17.20;;;;;;;-1.95;100.00;97007.82;110124;1245;69309;-71
2023/01/31 09:09:36;;;;;;;28.90;18.20;;;;;;;-1.93;100.00;97007.08;110179;1241;69099;-71
2023/01/31 09:12:06;;;;;;;26.20;16.00;;;;;;;-1.89;99.99;97001.16;110130;1242;69367;-70
2023/01/31 09:14:35;;;;;;;25.40;16.20;;;;;;;-1.83;99.38;96998.91;110097;1243;58074;-71
2023/01/31 09:17:04;;;;;;;29.10;15.70;;;;;;;-1.84;98.97;97003.71;110125;1246;58079;-71
2023/01/31 09:19:33;;;;;;;25.70;15.10;;;;;;;-1.79;99.17;96999.66;110134;1245;70328;-70
2023/01/31 09:22:01;;;;;;;23.40;15.70;;;;;;;-1.75;98.99;97002.95;110128;1242;70235;-71
2023/01/31 09:24:30;;;;;;;23.70;16.00;;;;;;;-1.70;98.61;97002.80;110106;1245;69277;-71
2023/01/31 09:26:59;;;;;;;25.30;15.60;;;;;;;-1.66;97.95;97005.41;110135;1244;58115;-71
2023/01/31 09:29:28;;;;;;;23.40;16.30;;;;;;;-1.62;98.06;97008.86;110065;1245;57999;-71
2023/01/31 09:31:58;;;;;;;25.00;15.50;;;;;;;-1.52;98.01;97008.57;110148;1243;69932;-71
2023/01/31 09:34:28;;;;;;;22.10;14.80;;;;;;;-1.47;96.97;97009.95;110180;1246;68554;-71
2023/01/31 09:36:57;;;;;;;27.90;16.20;;;;;;;-1.42;96.86;97013.20;110148;1245;69176;-71
2023/01/31 09:39:26;;;;;;;33.70;18.80;;;;;;;-1.39;96.35;97016.71;110128;1241;58134;-71
2023/01/31 09:42:00;;;;;;;29.10;15.90;;;;;;;-1.43;96.75;97018.38;110149;1241;58116;-71
2023/01/31 09:44:39;;;;;;;40.80;25.50;;;;;;;-1.35;96.18;97016.25;110192;1242;68990;-72
2023/01/31 09:47:17;;;;;;;26.80;17.10;;;;;;;-1.36;95.62;97016.09;110214;1241;69278;-71
2023/01/31 09:49:59;;;;;;;34.20;21.80;;;;;;;-1.38;95.73;97019.92;110153;1241;69458;-71
2023/01/31 09:52:30;;;;;;;29.50;17.40;;;;;;;-1.48;95.88;97020.58;110132;1242;58069;-71
2023/01/31 09:55:00;;;;;;;28.80;18.00;;;;;;;-1.49;96.41;97019.27;110159;1241;58062;-71
2023/01/31 09:57:57;;;;;;;31.00;18.90;;;;;;;-1.51;96.53;97022.02;110123;1241;68624;-71
2023/01/31 10:00:32;;;;;;;32.60;19.00;;;;;;;-1.53;96.74;97026.88;110179;1241;68395;-72
2023/01/31 10:03:38;;;;;;;33.80;20.40;;;;;;;-1.62;96.90;97028.52;110227;1242;68689;-72
2023/01/31 10:06:39;;;;;;;29.80;18.00;;;;;;;-1.55;97.28;97026.27;110252;1242;58132;-72
2023/01/31 10:09:15;;;;;;;;;;;;;;;-1.60;98.07;97021.64;110304;1245;58168;-72
2023/01/31 10:11:47;;;;;;;28.90;16.90;;;;;;;-1.57;97.56;97020.15;110225;1245;69632;-71
2023/01/31 10:14:29;;;;;;;32.60;18.80;;;;;;;-1.47;97.45;97025.00;110241;1241;68510;-71
2023/01/31 10:17:17;;;;;;;29.10;17.50;;;;;;;-1.40;97.11;97027.16;110196;1242;69231;-71
2023/01/31 10:19:58;;;;;;;28.10;16.40;;;;;;;-1.34;97.33;97031.59;110158;1241;58115;-71
2023/01/31 10:22:38;;;;;;;24.50;14.10;;;;;;;-1.17;97.64;97030.55;110179;1242;58069;-71
2023/01/31 10:25:30;;;;;;;27.30;17.20;;;;;;;-1.07;97.29;97031.05;110204;1245;70213;-71
2023/01/31 10:28:23;;;;;;;25.40;15.60;;;;;;;-0.96;96.43;97029.16;110213;1242;69276;-72
2023/01/31 10:31:19;;;;;;;26.60;16.00;;;;;;;-1.01;95.97;97027.80;110149;1243;69275;-71
2023/01/31 10:34:16;;;;;;;35.90;20.90;;;;;;;-0.96;95.93;97033.95;110135;1245;58126;-72
2023/01/31 10:37:00;;;;;;;32.80;20.00;;;;;;;-1.01;95.74;97031.38;110166;1242;58072;-72
2023/01/31 10:39:44;;;;;;;38.10;21.60;;;;;;;-1.03;95.98;97022.71;110233;1241;70430;-72
2023/01/31 10:42:32;;;;;;;32.30;19.60;;;;;;;-1.03;95.79;97019.11;110226;1249;69266;-71
2023/01/31 10:45:19;;;;;;;26.80;16.70;;;;;;;-1.02;95.53;97017.73;110143;1246;68685;-72
2023/01/31 10:47:50;;;;;;;28.50;17.10;;;;;;;-1.07;96.02;97020.77;110162;1242;58158;-72
2023/01/31 10:50:31;;;;;;;31.20;18.50;;;;;;;-1.01;95.72;97019.42;110145;1243;58058;-71
2023/01/31 10:53:21;;;;;;;26.70;14.90;;;;;;;-0.96;95.70;97016.34;110177;1245;69583;-72
2023/01/31 10:56:04;;;;;;;;;;;;;;;-0.79;95.68;97018.31;110240;1246;69169;-72
2023/01/31 10:58:34;;;;;;;26.00;14.50;;;;;;;-0.77;95.38;97018.27;110130;1242;69362;-72
2023/01/31 11:01:10;;;;;;;23.30;15.50;;;;;;;-0.70;95.12;97012.21;110157;1242;58156;-72
2023/01/31 11:03:47;;;;;;;27.40;15.80;;;;;;;-0.65;94.65;97007.41;110172;1245;58002;-72
2023/01/31 11:06:16;;;;;;;26.90;17.20;;;;;;;-0.68;94.58;97012.50;110206;1243;69756;-72
2023/01/31 11:08:52;;;;;;;29.40;17.50;;;;;;;-0.64;95.16;97009.09;110238;1250;69158;-72
2023/01/31 11:11:23;;;;;;;25.40;15.20;;;;;;;-0.63;94.69;97008.71;110103;1245;68316;-72
2023/01/31 11:14:02;;;;;;;26.50;15.80;;;;;;;-0.50;94.63;97011.35;110106;1243;58061;-72
2023/01/31 11:16:37;;;;;;;26.40;14.60;;;;;;;-0.45;93.96;97011.16;110132;1242;57996;-72
2023/01/31 11:19:33;;;;;;;23.90;13.80;;;;;;;-0.45;93.78;97006.38;110203;1247;70355;-72
2023/01/31 11:22:03;;;;;;;27.00;16.00;;;;;;;-0.39;93.65;97003.44;110151;1242;69231;-72
2023/01/31 11:24:36;;;;;;;22.90;14.70;;;;;;;-0.43;92.79;97000.66;110164;1246;69650;-72
2023/01/31 11:27:09;;;;;;;26.30;14.70;;;;;;;-0.36;92.88;96991.51;110167;1242;58099;-72
2023/01/31 11:29:49;;;;;;;23.50;13.40;;;;;;;-0.39;92.53;96991.10;110160;1242;58073;-72
2023/01/31 11:32:22;;;;;;;24.30;15.00;;;;;;;-0.37;92.68;96993.75;110206;1247;70371;-72
2023/01/31 11:34:56;;;;;;;24.50;14.20;;;;;;;-0.32;92.79;96988.78;110203;1246;69231;-72
2023/01/31 11:37:28;;;;;;;23.40;15.00;;;;;;;-0.22;92.98;96992.55;110135;1242;69065;-72
2023/01/31 11:40:19;;;;;;;24.50;15.20;;;;;;;-0.24;92.26;96988.31;110119;1246;58443;-72
2023/01/31 11:43:00;;;;;;;22.20;13.20;;;;;;;-0.16;92.81;96987.70;110137;1241;58137;-72
2023/01/31 11:45:33;;;;;;;25.70;15.50;;;;;;;-0.20;91.64;96987.00;110148;1245;69663;-72
2023/01/31 11:48:22;;;;;;;25.10;15.00;;;;;;;-0.38;91.44;96988.67;110222;1241;68435;-72
2023/01/31 11:50:54;;;;;;;21.40;13.70;;;;;;;-0.48;92.44;96989.02;110147;1242;68333;-72
2023/01/31 11:53:42;;;;;;;23.60;13.90;;;;;;;-0.36;92.30;96992.52;110133;1240;58120;-72
2023/01/31 11:56:23;;;;;;;23.20;13.30;;;;;;;-0.41;91.75;96997.67;110142;1241;58006;-72